Time;durP1;ratioP1;P1;durP2;ratioP2;P2;SDS_P1;SDS_P2;PMS_P1;PMS_P2;Temp;Humidity;BMP_temperature;BMP_pressure;BME280_temperature;BME280_humidity;BME280_pressure;Samples;Min_cycle;Max_cycle;Signal;HPM_P1;HPM_P2
2022/08/17 00:02:24;;;;;;;5.95;3.70;;;;;;;24.36;43.58;99162.91;7632013;32;38315;-73
2022/08/17 00:06:41;;;;;;;7.20;3.72;;;;;;;24.14;44.37;99158.25;7631593;32;39398;-74
2022/08/17 00:11:04;;;;;;;6.03;3.92;;;;;;;24.07;44.51;99160.94;7632280;32;40045;-73
2022/08/17 00:15:22;;;;;;;5.22;3.55;;;;;;;24.11;44.46;99161.78;7631488;32;38692;-73
2022/08/17 00:19:38;;;;;;;5.85;3.70;;;;;;;23.81;45.30;99171.72;7618880;32;36746;-73
2022/08/17 00:23:54;;;;;;;7.07;3.70;;;;;;;23.81;45.44;99173.72;7632028;32;39408;-74
2022/08/17 00:28:13;;;;;;;5.80;3.62;;;;;;;23.74;46.48;99174.38;7632132;32;40016;-73
2022/08/17 00:32:37;;;;;;;7.35;4.10;;;;;;;23.66;47.43;99174.66;7632128;32;37915;-73
2022/08/17 00:37:13;;;;;;;6.77;4.13;;;;;;;23.45;48.80;99175.94;7631635;32;38317;-73
2022/08/17 00:41:29;;;;;;;6.87;3.92;;;;;;;23.44;48.35;99177.13;7631798;32;39339;-73
2022/08/17 00:45:47;;;;;;;7.43;3.50;;;;;;;23.48;47.11;99169.63;7631706;32;40568;-73
2022/08/17 00:50:07;;;;;;;5.85;3.60;;;;;;;23.44;46.70;99174.34;7631821;32;37971;-73
2022/08/17 00:54:43;;;;;;;7.30;3.75;;;;;;;23.36;46.72;99172.63;7618325;32;37006;-73
2022/08/17 00:59:01;;;;;;;6.50;4.35;;;;;;;23.27;47.16;99174.84;7631856;32;39364;-73
2022/08/17 01:03:20;;;;;;;8.82;4.22;;;;;;;23.25;47.25;99184.38;7631456;32;39883;-73
2022/08/17 01:07:37;;;;;;;6.45;4.00;;;;;;;23.32;47.65;99189.25;7618218;32;35902;-73
2022/08/17 01:11:53;;;;;;;5.70;3.55;;;;;;;23.13;48.81;99190.12;7618029;32;37060;-73
2022/08/17 01:16:19;;;;;;;9.85;4.25;;;;;;;23.04;49.26;99195.09;7631245;32;40146;-73
2022/08/17 01:20:37;;;;;;;7.12;4.28;;;;;;;23.01;49.76;99196.66;7618215;32;40857;-73
2022/08/17 01:25:06;;;;;;;6.30;3.87;;;;;;;23.03;49.40;99193.50;7630945;32;38067;-73
2022/08/17 01:29:23;;;;;;;8.70;4.35;;;;;;;23.01;49.05;99196.66;7617625;32;37329;-73
2022/08/17 01:33:39;;;;;;;6.45;4.20;;;;;;;22.75;49.99;99189.03;7630859;32;39413;-73
2022/08/17 01:37:55;;;;;;;6.93;4.22;;;;;;;23.04;49.06;99190.34;7630817;32;40061;-73
2022/08/17 01:42:29;;;;;;;7.07;4.60;;;;;;;23.02;49.31;99183.53;7623038;32;37990;-73
2022/08/17 01:46:45;;;;;;;5.53;3.83;;;;;;;23.09;48.55;99189.25;7618082;32;37859;-74
2022/08/17 01:51:02;;;;;;;7.90;4.70;;;;;;;22.93;48.30;99196.91;7631014;32;39483;-72
2022/08/17 01:55:22;;;;;;;13.77;4.75;;;;;;;22.80;48.61;99196.25;7630424;32;40833;-73
2022/08/17 01:59:42;;;;;;;8.40;4.65;;;;;;;22.93;48.19;99191.34;7617874;32;38500;-72
2022/08/17 02:03:58;;;;;;;7.72;4.53;;;;;;;22.69;49.00;99185.72;7630011;32;37591;-73
2022/08/17 02:08:19;;;;;;;6.68;3.92;;;;;;;22.87;48.47;99193.63;7630273;32;38469;-73
2022/08/17 02:12:49;;;;;;;6.32;4.18;;;;;;;22.85;48.37;99193.16;7630142;32;39922;-72
2022/08/17 02:17:05;;;;;;;6.47;4.25;;;;;;;22.64;49.27;99188.03;7629382;32;36855;-72
2022/08/17 02:21:21;;;;;;;7.25;4.35;;;;;;;22.67;49.06;99190.06;7630067;32;37142;-72
2022/08/17 02:25:39;;;;;;;7.87;4.32;;;;;;;22.83;48.43;99185.19;7630018;32;39396;-73
2022/08/17 02:29:55;;;;;;;6.87;4.47;;;;;;;22.43;49.54;99186.44;7629779;32;39899;-73
2022/08/17 02:34:13;;;;;;;6.87;4.15;;;;;;;22.19;50.48;99184.72;7629409;32;37870;-73
2022/08/17 02:38:30;;;;;;;7.30;4.55;;;;;;;22.26;50.05;99181.28;7631356;32;37954;-72
2022/08/17 02:42:47;;;;;;;8.25;4.40;;;;;;;22.25;50.39;99188.00;7632983;32;39419;-72
2022/08/17 02:47:04;;;;;;;10.82;4.40;;;;;;;21.99;52.04;99186.69;7632900;32;40051;-72
2022/08/17 02:51:21;;;;;;;6.20;3.95;;;;;;;22.24;50.99;99187.19;7633056;32;38072;-72
2022/08/17 02:55:39;;;;;;;8.25;4.40;;;;;;;22.54;50.03;99188.62;7633101;32;38014;-73
2022/08/17 02:59:55;;;;;;;6.65;4.60;;;;;;;22.25;50.99;99188.00;7633342;32;39113;-72
2022/08/17 03:04:11;;;;;;;8.77;4.40;;;;;;;22.18;50.96;99190.63;7632726;32;39948;-73
2022/08/17 03:08:27;;;;;;;6.20;4.10;;;;;;;21.99;51.35;99192.25;7632348;32;38556;-72
2022/08/17 03:12:44;;;;;;;7.05;4.40;;;;;;;21.96;51.32;99198.50;7632831;32;37128;-73
2022/08/17 03:17:00;;;;;;;7.40;4.32;;;;;;;22.04;50.87;99197.50;7632419;32;40221;-73
2022/08/17 03:21:16;;;;;;;6.62;3.97;;;;;;;22.04;50.96;99205.84;7632718;32;40085;-72
2022/08/17 03:25:40;;;;;;;10.35;4.50;;;;;;;22.10;50.89;99198.81;7632728;32;38692;-72
2022/08/17 03:29:58;;;;;;;9.05;4.28;;;;;;;22.28;50.64;99204.78;7632758;32;37241;-73
2022/08/17 03:34:15;;;;;;;9.10;4.87;;;;;;;22.23;50.78;99199.50;7632316;32;39135;-73
2022/08/17 03:38:32;;;;;;;6.93;4.43;;;;;;;22.03;51.45;99208.97;7631920;32;40096;-73
2022/08/17 03:42:54;;;;;;;7.53;4.72;;;;;;;21.95;51.87;99216.31;7632011;32;37616;-73
2022/08/17 04:00:54;;;;;;;8.05;4.97;;;;;;;21.75;52.04;99221.03;7625283;32;38728;-72
2022/08/17 04:05:11;;;;;;;8.02;5.10;;;;;;;21.70;52.40;99224.88;7632005;32;37110;-73
2022/08/17 04:09:27;;;;;;;8.55;5.03;;;;;;;21.78;52.90;99214.75;7632131;32;39462;-72
2022/08/17 04:13:43;;;;;;;8.95;5.15;;;;;;;21.70;53.28;99235.97;7631737;32;40689;-72
2022/08/17 04:17:59;;;;;;;11.57;5.03;;;;;;;21.70;52.90;99235.19;7632063;32;38686;-73
2022/08/17 04:22:15;;;;;;;7.80;4.68;;;;;;;21.61;53.20;99240.91;7632110;32;37388;-72
2022/08/17 04:26:48;;;;;;;8.80;4.60;;;;;;;21.65;53.14;99236.25;7632139;32;39042;-72
2022/08/17 04:31:13;;;;;;;8.07;4.97;;;;;;;21.68;54.92;99246.63;7632084;32;39886;-72
2022/08/17 04:35:32;;;;;;;8.60;4.97;;;;;;;21.57;55.01;99256.66;7631809;32;38667;-73
2022/08/17 04:42:05;;;;;;;9.50;5.28;;;;;;;21.71;54.49;99258.97;7632403;32;37059;-73
2022/08/17 04:44:24;;;;;;;9.15;4.57;;;;;;;21.80;54.20;99256.81;7620793;32;40174;-72
2022/08/17 04:48:56;;;;;;;9.65;5.10;;;;;;;21.92;53.71;99261.44;7631212;32;40032;-73
2022/08/17 04:53:12;;;;;;;9.48;4.90;;;;;;;21.98;53.81;99257.22;7631504;32;38167;-72
2022/08/17 04:57:28;;;;;;;8.80;4.80;;;;;;;21.86;54.21;99257.34;7631392;32;37866;-72
2022/08/17 05:01:54;;;;;;;8.40;4.62;;;;;;;22.07;53.45;99266.16;7631009;32;39855;-72
2022/08/17 05:06:10;;;;;;;11.63;5.00;;;;;;;22.15;53.11;99266.34;7631803;32;40524;-73
2022/08/17 05:10:29;;;;;;;9.55;5.18;;;;;;;22.07;53.55;99271.69;7631626;32;37967;-73
2022/08/17 05:14:45;;;;;;;8.32;5.32;;;;;;;22.23;53.29;99268.06;7631939;32;37743;-72
2022/08/17 05:19:02;;;;;;;10.77;5.00;;;;;;;22.37;52.44;99267.59;7631462;32;40004;-73
2022/08/17 05:23:20;;;;;;;10.02;5.22;;;;;;;22.42;52.46;99270.09;7630676;32;39622;-73
2022/08/17 05:27:36;;;;;;;8.32;5.05;;;;;;;22.69;51.99;99262.72;7630811;32;38745;-73
2022/08/17 05:31:55;;;;;;;8.10;4.90;;;;;;;22.66;51.71;99260.69;7631290;32;37123;-74
2022/08/17 05:36:13;;;;;;;8.93;5.25;;;;;;;22.90;51.12;99267.09;7631243;32;40067;-73
2022/08/17 05:40:50;;;;;;;9.07;4.90;;;;;;;23.03;51.15;99263.78;7630414;32;41236;-73
2022/08/17 05:45:07;;;;;;;8.43;5.00;;;;;;;23.18;51.01;99255.72;7630531;32;37944;-73
2022/08/17 05:49:27;;;;;;;10.60;5.57;;;;;;;23.39;49.86;99258.09;7630287;32;37353;-72
2022/08/17 05:54:13;;;;;;;10.95;5.05;;;;;;;23.46;49.41;99254.63;7617386;32;39466;-73
2022/08/17 05:59:11;;;;;;;7.15;4.47;;;;;;;23.66;49.06;99258.94;7630787;32;39911;-73
2022/08/17 06:03:33;;;;;;;8.23;4.87;;;;;;;23.88;49.08;99260.09;7584362;32;38600;-73
2022/08/17 06:08:10;;;;;;;9.63;5.00;;;;;;;24.21;47.37;99258.59;7629909;32;37266;-76
2022/08/17 06:12:35;;;;;;;7.25;4.72;;;;;;;24.36;47.49;99268.75;7630969;32;39515;-74
2022/08/17 06:17:09;;;;;;;7.30;4.60;;;;;;;24.76;46.29;99260.91;7634053;32;38145;-74
2022/08/17 06:21:27;;;;;;;8.70;4.90;;;;;;;25.30;44.90;99272.62;7633418;32;38158;-73
2022/08/17 06:25:50;;;;;;;8.40;4.80;;;;;;;25.55;44.20;99269.28;7620943;32;37917;-74
2022/08/17 06:30:33;;;;;;;8.23;4.97;;;;;;;25.67;44.26;99272.56;7633837;32;37836;-73
2022/08/17 06:35:12;;;;;;;11.07;4.87;;;;;;;25.99;43.34;99274.03;7633169;32;41154;-73
2022/08/17 06:40:09;;;;;;;8.45;5.30;;;;;;;25.79;43.99;99265.09;7620418;32;38638;-74
2022/08/17 06:45:04;;;;;;;9.07;4.95;;;;;;;26.30;43.48;99275.44;7622515;32;37927;-73
2022/08/17 06:49:25;;;;;;;9.57;5.25;;;;;;;26.51;43.05;99279.50;7625818;32;39712;-74
2022/08/17 06:54:01;;;;;;;8.70;4.80;;;;;;;26.67;43.50;99273.62;7633584;32;40802;-73
2022/08/17 06:58:21;;;;;;;9.93;4.97;;;;;;;26.59;43.98;99269.97;7620660;32;38692;-74
2022/08/17 07:02:59;;;;;;;12.57;5.57;;;;;;;26.72;43.78;99264.88;7633520;32;37007;-73
2022/08/17 07:11:59;;;;;;;12.02;5.93;;;;;;;27.22;42.62;99267.00;7622347;32;40047;-74
2022/08/17 07:16:19;;;;;;;;;;;;;;;26.41;44.53;99275.50;7620530;32;37892;-73
2022/08/17 07:20:36;;;;;;;9.93;5.50;;;;;;;26.05;45.54;99275.28;7633459;32;37824;-73
2022/08/17 07:25:06;;;;;;;10.88;5.12;;;;;;;26.70;44.28;99275.63;7632046;32;39361;-74
2022/08/17 07:29:23;;;;;;;9.55;5.53;;;;;;;26.79;43.33;99268.47;7632787;32;40695;-76
2022/08/17 07:33:39;;;;;;;10.02;5.43;;;;;;;27.19;42.23;99270.59;7607461;32;37863;-73
2022/08/17 07:38:15;;;;;;;11.05;5.15;;;;;;;27.63;41.19;99258.22;7632910;32;37905;-71
2022/08/17 07:42:41;;;;;;;8.95;4.97;;;;;;;27.85;40.71;99261.81;7632874;32;40096;-72
2022/08/17 07:51:59;;;;;;;10.18;5.43;;;;;;;28.26;40.01;99264.19;7550105;33;37626;-73
2022/08/17 07:56:52;;;;;;;8.88;4.60;;;;;;;28.57;38.53;99264.50;7602153;32;38507;-73
2022/08/17 08:01:14;;;;;;;9.60;5.15;;;;;;;29.06;37.82;99259.81;7611937;32;39839;-75
2022/08/17 08:05:32;;;;;;;8.05;4.80;;;;;;;29.07;37.25;99257.84;7632138;32;39611;-72
2022/08/17 08:10:23;;;;;;;9.95;5.53;;;;;;;29.30;36.79;99265.72;7632285;32;38581;-71
2022/08/17 08:14:42;;;;;;;6.93;4.72;;;;;;;29.56;36.05;99262.31;7622620;32;37867;-73
2022/08/17 08:19:00;;;;;;;9.02;5.20;;;;;;;29.12;36.60;99260.22;7632381;32;39857;-72
2022/08/17 08:23:25;;;;;;;9.00;5.10;;;;;;;29.55;35.93;99260.72;7631343;32;40474;-74
2022/08/17 08:28:03;;;;;;;9.82;4.80;;;;;;;29.58;34.78;99265.50;7618449;32;37840;-72
2022/08/17 08:32:20;;;;;;;10.63;4.75;;;;;;;30.04;34.83;99252.25;7631999;32;37103;-72
2022/08/17 08:36:38;;;;;;;11.18;5.45;;;;;;;30.21;34.55;99258.91;7631236;32;39060;-74
2022/08/17 08:41:37;;;;;;;10.38;5.00;;;;;;;30.57;34.71;99252.91;7631669;32;40370;-74
2022/08/17 08:46:15;;;;;;;9.77;5.47;;;;;;;30.04;35.34;99254.28;7619946;32;38844;-73
2022/08/17 08:50:51;;;;;;;9.32;5.32;;;;;;;30.12;35.30;99262.22;7632155;32;37792;-74
2022/08/17 08:55:24;;;;;;;8.45;4.87;;;;;;;30.21;35.31;99249.69;7619768;32;39254;-75
2022/08/17 08:59:52;;;;;;;10.48;5.55;;;;;;;30.49;34.41;99252.19;7631909;32;40867;-76
2022/08/17 09:04:34;;;;;;;11.90;5.00;;;;;;;30.46;33.79;99241.78;7631827;32;37897;-75
2022/08/17 09:09:16;;;;;;;7.15;5.10;;;;;;;31.33;33.58;99232.94;7631159;32;38162;-74
2022/08/17 09:13:59;;;;;;;10.43;5.12;;;;;;;31.54;33.43;99237.44;7630799;32;39354;-76
2022/08/17 09:18:41;;;;;;;8.82;5.57;;;;;;;31.33;32.87;99237.78;7629823;32;40252;-75
2022/08/17 09:23:45;;;;;;;8.80;5.37;;;;;;;31.92;31.76;99237.19;7628609;32;39127;-75
2022/08/17 09:28:07;;;;;;;8.07;5.00;;;;;;;31.57;31.96;99235.81;7631553;32;38080;-75
2022/08/17 09:32:32;;;;;;;9.07;5.00;;;;;;;31.77;31.24;99239.47;7631135;32;39269;-78
2022/08/17 09:37:06;;;;;;;8.82;4.57;;;;;;;32.20;29.79;99229.44;7631392;32;40020;-76
2022/08/17 09:41:25;;;;;;;6.68;4.57;;;;;;;32.82;28.66;99232.59;7617330;32;38007;-75
2022/08/17 09:45:51;;;;;;;9.43;4.68;;;;;;;32.52;28.74;99231.59;7630634;32;37104;-76
2022/08/17 09:50:38;;;;;;;8.68;4.80;;;;;;;32.88;28.41;99230.84;7618520;32;39287;-75
2022/08/17 09:55:14;;;;;;;13.13;4.78;;;;;;;33.24;26.92;99232.09;7630051;32;39944;-76
2022/08/17 09:59:31;;;;;;;8.95;4.60;;;;;;;32.98;27.21;99219.75;7630839;32;38451;-77
2022/08/17 10:04:12;;;;;;;7.75;4.25;;;;;;;33.44;26.31;99229.16;7630905;32;37028;-73
2022/08/17 10:08:46;;;;;;;7.05;4.37;;;;;;;34.19;24.19;99230.06;7618467;32;39389;-74
2022/08/17 10:13:50;;;;;;;6.87;4.35;;;;;;;33.50;25.83;99236.66;7630867;32;39158;-77
2022/08/17 10:18:37;;;;;;;7.75;4.82;;;;;;;33.90;25.36;99230.00;7613624;32;37512;-74
2022/08/17 10:27:58;;;;;;;9.25;4.47;;;;;;;34.35;25.29;99237.69;7630195;32;39395;-74
2022/08/17 10:32:31;;;;;;;6.72;4.15;;;;;;;34.97;23.48;99228.19;7630240;32;40522;-75
2022/08/17 10:37:11;;;;;;;10.13;4.28;;;;;;;34.14;24.75;99215.63;7630042;32;37857;-74
2022/08/17 10:41:31;;;;;;;5.85;3.78;;;;;;;34.43;24.15;99221.31;7618535;32;37387;-74
2022/08/17 10:46:14;;;;;;;10.30;4.57;;;;;;;34.95;22.34;99222.19;7616631;32;39049;-74
2022/08/17 10:50:54;;;;;;;11.73;4.05;;;;;;;34.70;23.60;99228.56;7619678;32;40593;-75
2022/08/17 10:55:16;;;;;;;8.50;4.00;;;;;;;35.42;22.22;99218.66;7629768;32;37657;-74
2022/08/17 10:59:35;;;;;;;6.97;4.28;;;;;;;35.42;22.41;99227.16;7631708;32;36854;-74
2022/08/17 11:03:57;;;;;;;6.70;3.90;;;;;;;36.20;21.76;99216.37;7633274;32;39952;-74
2022/08/17 11:08:22;;;;;;;5.43;4.03;;;;;;;36.05;21.30;99216.13;7619867;32;38923;-76
2022/08/17 11:12:46;;;;;;;6.68;3.87;;;;;;;36.01;21.28;99204.09;7632842;32;37970;-76
2022/08/17 11:17:13;;;;;;;6.65;3.85;;;;;;;35.63;21.39;99214.28;7619771;32;36779;-77
2022/08/17 11:21:54;;;;;;;7.45;4.00;;;;;;;36.56;20.57;99210.16;7619056;32;39302;-76
2022/08/17 11:26:44;;;;;;;11.90;4.10;;;;;;;36.08;21.70;99201.81;7621875;32;40792;-75
2022/08/17 11:31:33;;;;;;;10.30;4.68;;;;;;;36.06;20.88;99195.00;7633197;32;38853;-77
2022/08/17 11:36:13;;;;;;;5.70;3.65;;;;;;;36.89;20.48;99192.69;7632968;32;37307;-76
2022/08/17 11:40:47;;;;;;;13.02;4.62;;;;;;;37.46;19.22;99180.25;7620546;32;39255;-79
2022/08/17 11:45:31;;;;;;;5.10;3.55;;;;;;;37.01;20.13;99188.16;7617395;32;40854;-75
2022/08/17 11:55:33;;;;;;;7.75;4.30;;;;;;;37.42;19.04;99179.63;7630248;32;38097;-77
2022/08/17 11:59:58;;;;;;;9.60;3.95;;;;;;;37.35;18.87;99175.81;7620301;32;40088;-77
2022/08/17 12:04:25;;;;;;;6.32;3.87;;;;;;;37.33;19.32;99166.97;7618144;32;40995;-76
2022/08/17 12:08:44;;;;;;;7.15;3.78;;;;;;;37.19;18.05;99170.41;7631561;32;37927;-76
2022/08/17 12:13:14;;;;;;;5.53;3.15;;;;;;;37.30;18.65;99162.22;7618946;32;36731;-76
2022/08/17 12:17:32;;;;;;;10.15;3.70;;;;;;;37.19;18.49;99159.84;7619983;32;39431;-78
2022/08/17 12:22:17;;;;;;;4.15;3.20;;;;;;;37.54;18.00;99151.03;7632398;32;39655;-77
2022/08/17 12:26:35;;;;;;;7.85;3.60;;;;;;;36.64;18.39;99149.03;7632164;32;38039;-78
2022/08/17 12:30:52;;;;;;;4.47;3.00;;;;;;;37.66;17.65;99146.50;7618367;32;37145;-78
2022/08/17 12:35:23;;;;;;;5.43;3.10;;;;;;;37.75;16.63;99154.22;7632353;32;39458;-77
2022/08/17 12:39:48;;;;;;;6.20;3.50;;;;;;;37.41;16.60;99153.22;7631517;32;40854;-76
2022/08/17 12:44:23;;;;;;;4.53;3.12;;;;;;;37.40;16.57;99143.12;7614574;32;38691;-79
2022/08/17 12:48:41;;;;;;;5.30;3.40;;;;;;;37.46;16.52;99140.44;7617097;32;37832;-77
2022/08/17 12:53:28;;;;;;;4.05;3.00;;;;;;;38.09;16.79;99135.22;7629775;32;39391;-77
2022/08/17 12:57:48;;;;;;;10.40;3.05;;;;;;;37.98;15.96;99132.06;7615678;32;39909;-77
2022/08/17 13:02:06;;;;;;;3.62;2.87;;;;;;;37.73;16.95;99129.09;7628597;32;37687;-75
2022/08/17 13:06:48;;;;;;;5.72;3.08;;;;;;;38.57;15.23;99132.59;7628137;32;37667;-76
2022/08/17 13:11:15;;;;;;;4.95;3.03;;;;;;;38.62;15.07;99131.16;7628361;32;39384;-77
2022/08/17 13:15:41;;;;;;;5.25;2.87;;;;;;;38.60;15.72;99125.97;7630980;32;39924;-74
2022/08/17 13:20:00;;;;;;;7.60;2.60;;;;;;;38.78;15.36;99125.09;7617973;32;37871;-75
2022/08/17 13:24:19;;;;;;;4.28;2.53;;;;;;;38.76;15.19;99124.78;7617704;32;37285;-76
2022/08/17 13:28:36;;;;;;;4.82;2.83;;;;;;;38.30;15.61;99125.72;7630811;32;39578;-81
2022/08/17 13:32:52;;;;;;;4.68;2.80;;;;;;;38.18;15.46;99135.22;7615603;32;40510;-75
2022/08/17 13:37:25;;;;;;;4.62;2.85;;;;;;;38.65;15.73;99128.16;7624617;32;37614;-76
2022/08/17 13:41:42;;;;;;;7.47;3.00;;;;;;;39.25;14.92;99117.06;7626706;32;36611;-77
2022/08/17 13:46:09;;;;;;;4.97;2.75;;;;;;;39.02;14.93;99121.47;7614998;32;39844;-74
2022/08/17 13:50:25;;;;;;;5.68;2.90;;;;;;;39.24;14.59;99119.13;7627298;32;41705;-74
2022/08/17 13:54:41;;;;;;;5.55;2.70;;;;;;;38.53;15.64;99131.19;7626400;32;37931;-74
2022/08/17 13:59:12;;;;;;;4.95;3.05;;;;;;;37.82;17.19;99113.31;7612576;32;36606;-76
2022/08/17 14:03:28;;;;;;;9.45;3.30;;;;;;;38.10;16.52;99120.53;7612756;32;40098;-76
2022/08/17 14:07:44;;;;;;;7.47;3.03;;;;;;;37.94;16.12;99120.88;7614309;32;39963;-75
2022/08/17 14:12:02;;;;;;;4.78;3.15;;;;;;;37.31;16.84;99118.34;7628435;32;37941;-75
2022/08/17 14:16:19;;;;;;;5.87;2.97;;;;;;;37.55;17.50;99124.19;7615409;32;36908;-75
2022/08/17 14:20:35;;;;;;;4.75;3.05;;;;;;;38.17;16.20;99121.47;7627057;32;39313;-76
2022/08/17 14:24:51;;;;;;;5.05;2.67;;;;;;;38.57;15.41;99106.16;7628198;32;39893;-75
2022/08/17 14:29:07;;;;;;;4.35;2.70;;;;;;;38.41;16.32;99113.84;7628481;32;38162;-74
2022/08/17 14:33:30;;;;;;;3.62;2.42;;;;;;;38.80;15.30;99105.44;7629759;32;36755;-74
2022/08/17 14:37:46;;;;;;;9.80;2.87;;;;;;;38.29;15.63;99107.06;7633030;32;38956;-74
2022/08/17 14:42:03;;;;;;;4.53;2.75;;;;;;;39.10;14.69;99105.59;7633200;32;40947;-74
2022/08/17 14:46:19;;;;;;;4.15;2.60;;;;;;;39.40;14.35;99100.03;7619812;32;37924;-74
2022/08/17 14:50:37;;;;;;;6.10;3.00;;;;;;;39.56;14.48;99101.66;7633556;32;37988;-73
2022/08/17 14:54:54;;;;;;;3.58;2.80;;;;;;;39.15;14.27;99107.78;7633615;32;38351;-73
2022/08/17 14:59:10;;;;;;;6.70;2.55;;;;;;;38.22;15.55;99103.75;7619988;32;40864;-73
2022/08/17 15:03:26;;;;;;;6.53;2.75;;;;;;;38.74;15.72;99107.41;7633242;32;39456;-74
2022/08/17 15:07:43;;;;;;;6.32;2.95;;;;;;;37.58;15.43;99105.38;7633285;32;36732;-73
2022/08/17 15:12:05;;;;;;;4.82;2.65;;;;;;;38.10;15.48;99102.66;7632722;32;39724;-77
2022/08/17 15:16:22;;;;;;;3.20;2.50;;;;;;;38.39;16.08;99104.97;7620214;32;40867;-74
2022/08/17 15:20:38;;;;;;;7.03;2.90;;;;;;;38.44;15.61;99107.16;7632235;32;38696;-75
2022/08/17 15:24:54;;;;;;;4.22;2.50;;;;;;;38.03;16.09;99105.84;7633115;32;36718;-74
2022/08/17 15:29:11;;;;;;;3.40;2.40;;;;;;;38.35;15.31;99101.50;7632991;32;39655;-77
2022/08/17 15:33:29;;;;;;;2.95;2.35;;;;;;;38.19;15.83;99118.94;7632928;32;40048;-78
2022/08/17 15:37:45;;;;;;;3.65;2.55;;;;;;;37.86;15.27;99117.56;7614179;32;37753;-77
2022/08/17 15:42:03;;;;;;;4.82;2.78;;;;;;;38.46;15.05;99110.34;7630992;32;37854;-78
2022/08/17 15:46:21;;;;;;;4.90;2.67;;;;;;;38.11;15.14;99112.78;7630364;32;39166;-78
2022/08/17 15:50:37;;;;;;;5.65;2.55;;;;;;;37.41;15.59;99107.75;7631109;32;40056;-78
2022/08/17 15:55:00;;;;;;;6.78;2.40;;;;;;;37.05;16.04;99114.16;7631591;32;38675;-78
2022/08/17 15:59:16;;;;;;;3.60;2.42;;;;;;;37.15;16.04;99115.75;7617941;32;36802;-79
2022/08/17 16:03:33;;;;;;;6.50;2.55;;;;;;;37.54;15.19;99111.22;7632546;32;39116;-77
2022/08/17 16:08:09;;;;;;;3.92;2.53;;;;;;;37.53;15.63;99115.34;7620632;32;40126;-78
2022/08/17 16:12:26;;;;;;;7.20;2.25;;;;;;;37.28;15.95;99119.28;7630281;32;38762;-78
2022/08/17 16:16:42;;;;;;;5.07;2.80;;;;;;;37.14;16.09;99119.88;7631914;32;36943;-77
2022/08/17 16:21:28;;;;;;;4.35;2.45;;;;;;;36.75;17.06;99108.87;7631662;32;39019;-79
2022/08/17 16:25:57;;;;;;;3.08;2.30;;;;;;;37.05;16.65;99114.16;7631972;32;40054;-75
2022/08/17 16:30:16;;;;;;;7.15;2.50;;;;;;;36.43;17.02;99104.47;7631879;32;38757;-75
2022/08/17 16:34:33;;;;;;;4.40;2.42;;;;;;;36.78;16.52;99107.16;7618720;32;37930;-76
2022/08/17 16:38:49;;;;;;;6.05;2.45;;;;;;;36.80;16.58;99102.56;7618234;32;39670;-76
2022/08/17 16:43:10;;;;;;;5.37;2.67;;;;;;;35.85;17.65;99109.44;7631961;32;40739;-76
2022/08/17 16:47:27;;;;;;;8.75;2.42;;;;;;;35.97;17.55;99104.97;7631519;32;37974;-76
2022/08/17 16:51:43;;;;;;;6.10;2.58;;;;;;;35.94;17.31;99107.94;7631783;32;37285;-76
2022/08/17 16:55:59;;;;;;;6.62;2.28;;;;;;;36.09;17.22;99106.16;7630236;32;39529;-75
2022/08/17 17:00:18;;;;;;;6.75;2.78;;;;;;;35.71;17.86;99115.63;7630918;32;39884;-75
2022/08/17 17:04:37;;;;;;;3.62;2.30;;;;;;;35.87;17.46;99123.97;7631504;32;36968;-75
2022/08/17 17:08:58;;;;;;;3.10;2.03;;;;;;;36.15;17.01;99109.94;7616293;32;37933;-75
2022/08/17 17:13:34;;;;;;;4.90;2.20;;;;;;;36.70;16.45;99112.31;7617351;32;40185;-77
2022/08/17 17:17:51;;;;;;;4.62;2.70;;;;;;;36.44;17.17;99134.41;7631267;32;40691;-77
2022/08/17 17:22:12;;;;;;;6.55;2.40;;;;;;;35.88;17.77;99122.72;7617931;32;38810;-77
2022/08/17 17:26:57;;;;;;;3.37;2.72;;;;;;;35.78;18.03;99129.56;7631109;32;37198;-77
2022/08/17 17:31:19;;;;;;;5.43;2.58;;;;;;;35.88;18.04;99128.38;7618597;32;40038;-79
2022/08/17 17:36:10;;;;;;;5.78;2.47;;;;;;;35.62;18.35;99129.75;7630986;32;40839;-77
2022/08/17 17:40:41;;;;;;;5.03;2.50;;;;;;;35.31;18.73;99136.06;7619799;32;38408;-76
2022/08/17 17:45:11;;;;;;;4.97;2.23;;;;;;;35.27;18.91;99144.69;7631244;32;37995;-81
2022/08/17 17:49:37;;;;;;;5.82;2.80;;;;;;;34.94;20.31;99147.75;7616646;32;39279;-77
2022/08/17 17:54:09;;;;;;;9.20;2.70;;;;;;;34.68;21.47;99152.59;7630735;32;39967;-80
2022/08/17 17:58:54;;;;;;;5.22;2.62;;;;;;;34.60;21.60;99154.09;7630959;32;38733;-79
2022/08/17 18:03:29;;;;;;;7.28;2.83;;;;;;;34.17;20.80;99158.19;7630989;32;37016;-79
2022/08/17 18:08:29;;;;;;;12.75;3.83;;;;;;;34.11;21.20;99159.97;7631668;32;39482;-78
2022/08/17 18:12:57;;;;;;;7.40;3.17;;;;;;;33.64;22.37;99167.69;7580759;32;40924;-78
2022/08/17 18:17:13;;;;;;;7.12;3.50;;;;;;;33.44;22.27;99167.00;7614370;32;38074;-79
2022/08/17 18:21:38;;;;;;;12.43;5.03;;;;;;;33.04;22.83;99170.00;7630463;32;36602;-79
2022/08/17 18:25:57;;;;;;;7.78;4.07;;;;;;;33.01;22.91;99168.06;7631259;32;38422;-75
2022/08/17 18:30:13;;;;;;;6.87;3.20;;;;;;;32.73;23.07;99173.13;7630988;32;40338;-74
2022/08/17 18:34:30;;;;;;;4.80;2.90;;;;;;;32.48;23.44;99177.28;7632815;32;38887;-74
2022/08/17 18:39:15;;;;;;;9.18;3.08;;;;;;;32.17;25.43;99180.34;7621395;32;37059;-75
2022/08/17 18:43:36;;;;;;;12.65;3.15;;;;;;;32.11;24.98;99179.25;7632837;32;40508;-74
2022/08/17 18:48:28;;;;;;;5.62;2.80;;;;;;;31.99;24.83;99180.69;7619847;32;40509;-72
2022/08/17 18:52:48;;;;;;;10.75;3.33;;;;;;;31.70;24.61;99188.09;7631367;32;37891;-77
2022/08/17 18:57:05;;;;;;;5.47;2.72;;;;;;;31.50;24.81;99194.47;7633194;32;37242;-75
2022/08/17 19:01:22;;;;;;;7.62;2.87;;;;;;;31.21;25.02;99196.94;7633358;32;39426;-76
2022/08/17 19:06:24;;;;;;;7.25;2.70;;;;;;;31.13;25.33;99198.28;7606603;32;40293;-78
2022/08/17 19:10:42;;;;;;;4.03;2.70;;;;;;;30.93;25.52;99201.78;7606049;32;38357;-77
2022/08/17 19:15:02;;;;;;;5.33;2.90;;;;;;;30.74;26.06;99202.47;7605689;32;38012;-76
2022/08/17 19:19:46;;;;;;;4.80;2.50;;;;;;;30.65;26.02;99206.59;7593516;32;39660;-77
2022/08/17 19:24:03;;;;;;;7.40;2.47;;;;;;;30.53;26.07;99207.16;7607002;32;40011;-77
2022/08/17 19:28:31;;;;;;;7.15;2.67;;;;;;;30.21;26.82;99207.53;7627613;32;38066;-75
2022/08/17 19:32:49;;;;;;;3.30;2.67;;;;;;;30.00;27.22;99212.16;7632730;32;37797;-77
2022/08/17 19:37:34;;;;;;;7.03;2.92;;;;;;;29.88;27.51;99216.31;7619510;32;39570;-77
2022/08/17 19:42:15;;;;;;;6.22;2.75;;;;;;;29.96;27.44;99220.62;7632512;32;39614;-76
2022/08/17 19:46:40;;;;;;;4.57;3.10;;;;;;;29.88;27.48;99219.12;7604904;32;37910;-76
2022/08/17 19:51:10;;;;;;;6.28;3.00;;;;;;;29.56;28.17;99228.63;7632475;32;37687;-76
2022/08/17 19:55:42;;;;;;;5.37;2.70;;;;;;;29.41;28.50;99221.53;7632673;32;39511;-77
2022/08/17 19:59:58;;;;;;;;;;;;;;;29.30;28.34;99234.84;7628212;32;39650;-77
2022/08/17 20:04:20;;;;;;;4.95;3.17;;;;;;;29.18;28.23;99231.34;7632727;32;38767;-78
2022/08/17 20:08:51;;;;;;;7.05;2.72;;;;;;;29.02;28.73;99228.19;7632466;32;37595;-77
2022/08/17 20:13:12;;;;;;;5.22;3.00;;;;;;;29.04;29.08;99234.19;7619265;32;39098;-77
2022/08/17 20:17:44;;;;;;;6.10;2.90;;;;;;;28.75;29.65;99228.78;7632454;32;40528;-77
2022/08/17 20:22:10;;;;;;;5.95;3.15;;;;;;;28.79;29.66;99234.34;7619757;32;39186;-77
2022/08/17 20:26:56;;;;;;;5.93;3.05;;;;;;;28.41;30.14;99229.28;7631571;32;36744;-75
2022/08/17 20:31:44;;;;;;;7.00;2.92;;;;;;;28.43;29.95;99228.88;7624789;32;38256;-79
2022/08/17 20:36:10;;;;;;;6.15;2.80;;;;;;;28.37;30.17;99220.09;7632272;32;40710;-80
2022/08/17 20:40:35;;;;;;;7.35;2.95;;;;;;;28.24;29.83;99207.75;7619596;32;38759;-77
2022/08/17 20:44:56;;;;;;;4.65;2.50;;;;;;;28.22;30.28;99215.75;7632329;32;37612;-78
2022/08/17 20:49:25;;;;;;;4.40;2.87;;;;;;;28.01;30.56;99208.19;7618561;32;39307;-77
2022/08/17 20:54:14;;;;;;;8.55;2.92;;;;;;;27.72;30.92;99217.44;7618999;32;39960;-77
2022/08/17 20:58:30;;;;;;;5.43;2.95;;;;;;;27.48;34.55;99223.87;7626542;32;38437;-78
2022/08/17 21:02:49;;;;;;;5.43;2.70;;;;;;;27.40;34.05;99220.25;7631821;32;37638;-76
2022/08/17 21:07:30;;;;;;;6.15;2.75;;;;;;;27.35;33.15;99220.66;7631932;32;40045;-78
2022/08/17 21:12:00;;;;;;;5.15;2.90;;;;;;;27.63;31.85;99219.03;7631528;32;40065;-77
2022/08/17 21:16:28;;;;;;;5.73;3.30;;;;;;;27.47;31.89;99222.25;7631787;32;38641;-77
2022/08/17 21:21:15;;;;;;;5.25;2.70;;;;;;;27.39;31.77;99226.25;7631844;32;36744;-77